Time;durP1;ratioP1;P1;durP2;ratioP2;P2;SDS_P1;SDS_P2;PMS_P1;PMS_P2;Temp;Humidity;BMP_temperature;BMP_pressure;BME280_temperature;BME280_humidity;BME280_pressure;Samples;Min_cycle;Max_cycle;Signal;HPM_P1;HPM_P2
2022/05/21 00:00:16;;;;;;;11.88;5.55;;;;;;;;;;4940449;29;20215;-40
2022/05/21 00:03:01;;;;;;;15.80;5.07;;;;;;;;;;4947900;29;20207;-42
2022/05/21 00:05:29;;;;;;;8.95;5.00;;;;;;;;;;4960061;29;20211;-40
2022/05/21 00:07:56;;;;;;;13.95;5.35;;;;;;;;;;4959471;29;20219;-40
2022/05/21 00:10:24;;;;;;;6.40;5.22;;;;;;;;;;4959603;29;20594;-40
2022/05/21 00:12:51;;;;;;;10.30;4.82;;;;;;;;;;4959538;29;20211;-40
2022/05/21 00:15:21;;;;;;;10.07;5.18;;;;;;;;;;4959389;29;20294;-40
2022/05/21 00:17:48;;;;;;;7.35;4.80;;;;;;;;;;4960124;29;20295;-41
2022/05/21 00:23:24;;;;;;;7.38;4.93;;;;;;;;;;4942518;29;20620;-40
2022/05/21 00:26:03;;;;;;;10.40;4.70;;;;;;;;;;4959603;29;20204;-41
2022/05/21 00:28:31;;;;;;;9.95;5.95;;;;;;;;;;4958687;29;20234;-40
2022/05/21 00:30:59;;;;;;;11.82;5.55;;;;;;;;;;4959289;29;20737;-40
2022/05/21 00:33:27;;;;;;;8.98;5.00;;;;;;;;;;4959070;29;20207;-40
2022/05/21 00:35:54;;;;;;;10.80;5.57;;;;;;;;;;4959461;29;20697;-40
2022/05/21 00:38:22;;;;;;;10.02;5.10;;;;;;;;;;4959467;29;20219;-40
2022/05/21 00:40:50;;;;;;;6.82;5.38;;;;;;;;;;4959230;29;20207;-40
2022/05/21 00:43:41;;;;;;;8.63;5.78;;;;;;;;;;4959276;29;20204;-40
2022/05/21 00:46:16;;;;;;;9.82;5.53;;;;;;;;;;4959269;29;20207;-41
2022/05/21 00:48:45;;;;;;;9.00;5.47;;;;;;;;;;4957980;29;20768;-40
2022/05/21 00:51:16;;;;;;;10.48;5.55;;;;;;;;;;4958865;29;20203;-40
2022/05/21 00:53:45;;;;;;;15.38;5.93;;;;;;;;;;4958877;29;20256;-40
2022/05/21 00:56:13;;;;;;;9.38;5.55;;;;;;;;;;4958898;29;20279;-40
2022/05/21 01:01:27;;;;;;;7.15;4.75;;;;;;;;;;4958158;29;20255;-41
2022/05/21 01:03:54;;;;;;;7.35;4.88;;;;;;;;;;4941310;29;20212;-40
2022/05/21 01:06:22;;;;;;;9.52;5.10;;;;;;;;;;4957736;29;20253;-41
2022/05/21 01:08:48;;;;;;;13.50;5.47;;;;;;;;;;4958420;29;20234;-40
2022/05/21 01:11:18;;;;;;;6.50;5.00;;;;;;;;;;4941601;29;20528;-40
2022/05/21 01:13:47;;;;;;;9.15;5.20;;;;;;;;;;4941070;29;20199;-42
2022/05/21 01:16:15;;;;;;;8.68;6.13;;;;;;;;;;4958168;29;20203;-40
2022/05/21 01:18:42;;;;;;;10.60;5.65;;;;;;;;;;4958694;29;20212;-40
2022/05/21 01:21:09;;;;;;;11.07;6.03;;;;;;;;;;4958469;29;20204;-40
2022/05/21 01:23:36;;;;;;;11.85;6.15;;;;;;;;;;4958192;29;20206;-40
2022/05/21 01:26:15;;;;;;;16.80;6.47;;;;;;;;;;4959102;29;20203;-40
2022/05/21 01:28:44;;;;;;;10.77;6.05;;;;;;;;;;4958261;29;20379;-40
2022/05/21 01:31:12;;;;;;;14.82;6.60;;;;;;;;;;4958541;29;20239;-40
2022/05/21 01:33:43;;;;;;;13.50;6.45;;;;;;;;;;4958274;29;20536;-41
2022/05/21 01:36:10;;;;;;;10.32;6.57;;;;;;;;;;4957889;29;20215;-40
2022/05/21 01:38:38;;;;;;;8.65;6.47;;;;;;;;;;4957920;29;20203;-40
2022/05/21 01:41:07;;;;;;;10.27;5.85;;;;;;;;;;4957981;29;20207;-41
2022/05/21 01:46:22;;;;;;;10.35;7.15;;;;;;;;;;4957989;29;20652;-40
2022/05/21 01:48:49;;;;;;;13.10;6.85;;;;;;;;;;4956743;29;20314;-41
2022/05/21 01:51:16;;;;;;;7.93;6.60;;;;;;;;;;4957642;29;20258;-41
2022/05/21 01:53:43;;;;;;;9.18;6.75;;;;;;;;;;4909177;29;20219;-42
2022/05/21 01:56:11;;;;;;;13.00;7.63;;;;;;;;;;4941019;29;20207;-40
2022/05/21 01:58:38;;;;;;;13.98;6.78;;;;;;;;;;4957355;28;20266;-41
2022/05/21 02:01:07;;;;;;;8.57;6.75;;;;;;;;;;4957272;29;20203;-40
2022/05/21 02:03:34;;;;;;;9.85;6.82;;;;;;;;;;4957257;29;20286;-41
2022/05/21 02:06:01;;;;;;;9.98;6.97;;;;;;;;;;4939936;29;20263;-40
2022/05/21 02:08:28;;;;;;;14.75;7.20;;;;;;;;;;4957211;29;20231;-41
2022/05/21 02:10:55;;;;;;;11.93;6.38;;;;;;;;;;4957334;29;20207;-40
2022/05/21 02:13:32;;;;;;;10.05;7.07;;;;;;;;;;4957271;29;20207;-40
2022/05/21 02:16:00;;;;;;;11.82;7.68;;;;;;;;;;4956988;29;20297;-40
2022/05/21 02:18:27;;;;;;;13.88;7.20;;;;;;;;;;4957190;29;20210;-40
2022/05/21 02:20:54;;;;;;;9.65;7.72;;;;;;;;;;4957050;29;20608;-40
2022/05/21 02:23:22;;;;;;;13.32;8.10;;;;;;;;;;4956868;29;20662;-41
2022/05/21 02:25:49;;;;;;;42.65;11.95;;;;;;;;;;4956979;29;20214;-40
2022/05/21 02:28:16;;;;;;;31.65;11.77;;;;;;;;;;4956928;29;20676;-41
2022/05/21 02:30:44;;;;;;;21.17;10.82;;;;;;;;;;4957022;29;20301;-41
2022/05/21 02:33:11;;;;;;;24.88;10.88;;;;;;;;;;4956940;29;20306;-40
2022/05/21 02:35:39;;;;;;;15.52;9.95;;;;;;;;;;4956745;29;20213;-40
2022/05/21 02:40:52;;;;;;;13.93;10.80;;;;;;;;;;4954365;29;20207;-40
2022/05/21 02:43:19;;;;;;;15.02;11.00;;;;;;;;;;4956408;29;20278;-40
2022/05/21 02:45:47;;;;;;;17.58;11.35;;;;;;;;;;4950723;29;20215;-42
2022/05/21 02:48:14;;;;;;;20.98;10.82;;;;;;;;;;4955983;29;20230;-40
2022/05/21 02:50:41;;;;;;;17.65;11.68;;;;;;;;;;4956919;29;20234;-40
2022/05/21 02:53:15;;;;;;;14.00;10.85;;;;;;;;;;4956533;29;20270;-41
2022/05/21 02:55:42;;;;;;;18.20;11.35;;;;;;;;;;4956778;29;20184;-40
2022/05/21 02:58:09;;;;;;;19.92;12.02;;;;;;;;;;4956901;29;20221;-40
2022/05/21 03:00:36;;;;;;;16.65;11.88;;;;;;;;;;4957294;29;20203;-41
2022/05/21 03:03:04;;;;;;;15.10;11.05;;;;;;;;;;4956595;29;20203;-41
2022/05/21 03:05:31;;;;;;;16.73;12.50;;;;;;;;;;4956695;29;20219;-41
2022/05/21 03:08:00;;;;;;;20.77;12.38;;;;;;;;;;4956623;29;20238;-40
2022/05/21 03:10:29;;;;;;;20.50;12.70;;;;;;;;;;4959297;28;20211;-40
2022/05/21 03:13:01;;;;;;;17.20;12.77;;;;;;;;;;4963106;29;20203;-41
2022/05/21 03:15:37;;;;;;;16.42;12.50;;;;;;;;;;4962916;29;20203;-41
2022/05/21 03:18:07;;;;;;;20.67;12.82;;;;;;;;;;4963326;29;20214;-40
2022/05/21 03:20:35;;;;;;;20.48;12.23;;;;;;;;;;4962780;29;20676;-44
2022/05/21 03:23:02;;;;;;;18.63;12.23;;;;;;;;;;4961270;28;20598;-41
2022/05/21 03:25:29;;;;;;;14.35;11.95;;;;;;;;;;4961376;29;20222;-46
2022/05/21 03:27:57;;;;;;;14.60;12.40;;;;;;;;;;4959925;29;20626;-47
2022/05/21 03:30:27;;;;;;;18.75;12.02;;;;;;;;;;4961488;29;20234;-41
2022/05/21 03:32:54;;;;;;;19.75;11.98;;;;;;;;;;4961512;28;20211;-41
2022/05/21 03:35:22;;;;;;;13.95;11.73;;;;;;;;;;4961151;28;20718;-46
2022/05/21 03:37:50;;;;;;;14.15;11.63;;;;;;;;;;4961295;28;20695;-42
2022/05/21 03:40:22;;;;;;;16.75;12.18;;;;;;;;;;4959092;28;20665;-46
2022/05/21 03:42:49;;;;;;;16.25;12.93;;;;;;;;;;4960587;28;20191;-41
2022/05/21 03:45:16;;;;;;;19.10;12.75;;;;;;;;;;4958669;28;20239;-42
2022/05/21 03:47:43;;;;;;;18.00;13.25;;;;;;;;;;4960953;28;20199;-43
2022/05/21 03:50:13;;;;;;;18.20;13.48;;;;;;;;;;4961297;29;20191;-40
2022/05/21 03:52:40;;;;;;;21.83;13.20;;;;;;;;;;4954984;29;20203;-41
2022/05/21 03:55:08;;;;;;;17.63;13.85;;;;;;;;;;4960717;29;20235;-41
2022/05/21 03:57:35;;;;;;;19.73;13.90;;;;;;;;;;4961998;28;20204;-42
2022/05/21 04:00:05;;;;;;;22.05;13.82;;;;;;;;;;4961412;28;20219;-41
2022/05/21 04:02:38;;;;;;;19.73;14.82;;;;;;;;;;4962882;28;20199;-44
2022/05/21 04:05:07;;;;;;;15.50;13.15;;;;;;;;;;4962585;29;20217;-40
2022/05/21 04:07:35;;;;;;;19.05;13.07;;;;;;;;;;4961176;29;20260;-41
2022/05/21 04:10:03;;;;;;;20.13;13.23;;;;;;;;;;4962653;29;20250;-40
2022/05/21 04:12:30;;;;;;;20.67;15.00;;;;;;;;;;4962524;29;20207;-42
2022/05/21 04:14:58;;;;;;;20.65;14.70;;;;;;;;;;4962770;29;20294;-41
2022/05/21 04:17:25;;;;;;;18.23;12.95;;;;;;;;;;4962603;28;20211;-40
2022/05/21 04:19:51;;;;;;;16.50;13.20;;;;;;;;;;4962424;28;20706;-40
2022/05/21 04:22:19;;;;;;;15.30;12.75;;;;;;;;;;4960847;28;20215;-40
2022/05/21 04:24:46;;;;;;;18.55;14.05;;;;;;;;;;4959340;29;20710;-40
2022/05/21 04:27:13;;;;;;;17.77;13.30;;;;;;;;;;4959070;29;20266;-44
2022/05/21 04:29:40;;;;;;;21.42;13.35;;;;;;;;;;4959357;29;20223;-41
2022/05/21 04:32:07;;;;;;;21.20;15.05;;;;;;;;;;4958720;29;20238;-40
2022/05/21 04:34:34;;;;;;;17.77;14.90;;;;;;;;;;4959302;29;20226;-40
2022/05/21 04:37:01;;;;;;;23.08;15.10;;;;;;;;;;4959281;29;20211;-41
2022/05/21 04:39:28;;;;;;;18.58;15.23;;;;;;;;;;4959162;29;20246;-41
2022/05/21 04:41:55;;;;;;;19.85;13.60;;;;;;;;;;4959043;29;20207;-41
2022/05/21 04:44:25;;;;;;;17.88;13.80;;;;;;;;;;4959043;29;20660;-40
2022/05/21 04:46:52;;;;;;;17.38;14.63;;;;;;;;;;4958923;29;20203;-40
2022/05/21 04:49:19;;;;;;;17.63;14.93;;;;;;;;;;4959036;29;20339;-42
2022/05/21 04:51:46;;;;;;;21.55;14.80;;;;;;;;;;4958777;29;20701;-40
2022/05/21 04:54:13;;;;;;;18.85;13.95;;;;;;;;;;4952589;28;20239;-41
2022/05/21 04:56:40;;;;;;;18.58;13.68;;;;;;;;;;4945953;29;20231;-41
2022/05/21 04:59:11;;;;;;;17.88;13.35;;;;;;;;;;4957576;29;20681;-40
2022/05/21 05:01:40;;;;;;;22.08;14.52;;;;;;;;;;4957966;29;20243;-42
2022/05/21 05:04:08;;;;;;;19.17;14.30;;;;;;;;;;4957314;29;20219;-40
2022/05/21 05:06:36;;;;;;;16.10;13.00;;;;;;;;;;4957656;28;20298;-42
2022/05/21 05:09:04;;;;;;;17.27;12.85;;;;;;;;;;4956738;29;20353;-41
2022/05/21 05:11:31;;;;;;;17.48;13.40;;;;;;;;;;4957993;29;20227;-41
2022/05/21 05:13:58;;;;;;;16.83;14.30;;;;;;;;;;4957374;29;20235;-43
2022/05/21 05:16:26;;;;;;;16.15;13.45;;;;;;;;;;4940958;29;20227;-41
2022/05/21 05:18:53;;;;;;;17.83;13.88;;;;;;;;;;4957517;29;20779;-41
2022/05/21 05:21:19;;;;;;;22.27;13.85;;;;;;;;;;4957387;29;20283;-43
2022/05/21 05:23:46;;;;;;;18.08;14.00;;;;;;;;;;4957022;29;20307;-42
2022/05/21 05:26:14;;;;;;;21.05;14.52;;;;;;;;;;4957209;29;20291;-41
2022/05/21 05:28:44;;;;;;;18.85;14.73;;;;;;;;;;4957661;29;20242;-40
2022/05/21 05:31:12;;;;;;;21.05;15.68;;;;;;;;;;4957326;29;20302;-42
2022/05/21 05:33:39;;;;;;;18.90;15.80;;;;;;;;;;4957073;28;20242;-43
2022/05/21 05:36:06;;;;;;;25.13;16.42;;;;;;;;;;4956580;29;20298;-45
2022/05/21 05:38:35;;;;;;;22.05;16.10;;;;;;;;;;4951234;29;20582;-43
2022/05/21 05:41:06;;;;;;;20.52;17.35;;;;;;;;;;4937810;29;20314;-43
2022/05/21 05:43:33;;;;;;;20.83;16.15;;;;;;;;;;4938135;29;20283;-41
2022/05/21 05:46:00;;;;;;;19.85;17.25;;;;;;;;;;4937666;29;20324;-45
2022/05/21 05:48:28;;;;;;;21.77;17.88;;;;;;;;;;4949420;29;20230;-44
2022/05/21 05:50:57;;;;;;;21.00;18.73;;;;;;;;;;4953929;29;20226;-43
2022/05/21 05:53:25;;;;;;;26.30;18.95;;;;;;;;;;4954743;29;20223;-44
2022/05/21 05:55:52;;;;;;;22.00;18.73;;;;;;;;;;4955059;28;20242;-43
2022/05/21 06:01:07;;;;;;;21.63;18.67;;;;;;;;;;4952281;29;20222;-45
2022/05/21 06:03:34;;;;;;;20.90;18.70;;;;;;;;;;4955235;29;20342;-43
2022/05/21 06:06:02;;;;;;;25.98;18.88;;;;;;;;;;4956098;29;20545;-44
2022/05/21 06:08:29;;;;;;;19.55;17.42;;;;;;;;;;4955864;29;20224;-42
2022/05/21 06:10:56;;;;;;;19.02;17.13;;;;;;;;;;4953742;29;20227;-44
2022/05/21 06:13:23;;;;;;;19.50;17.23;;;;;;;;;;4956305;29;20227;-41
2022/05/21 06:15:50;;;;;;;20.70;15.95;;;;;;;;;;4956180;29;20219;-44
2022/05/21 06:18:20;;;;;;;21.13;17.65;;;;;;;;;;4953464;29;20315;-44
2022/05/21 06:20:48;;;;;;;23.42;17.50;;;;;;;;;;4956324;29;20282;-45
2022/05/21 06:23:16;;;;;;;19.63;17.02;;;;;;;;;;4952899;29;20219;-47
2022/05/21 06:25:43;;;;;;;20.58;16.17;;;;;;;;;;4956139;29;20360;-45
2022/05/21 06:28:10;;;;;;;19.50;14.65;;;;;;;;;;4956284;29;20271;-46
2022/05/21 06:30:39;;;;;;;15.02;13.30;;;;;;;;;;4950674;29;20243;-45
2022/05/21 06:33:18;;;;;;;14.20;12.43;;;;;;;;;;4955987;29;20287;-47
2022/05/21 06:35:46;;;;;;;13.10;11.77;;;;;;;;;;4955356;28;20748;-45
2022/05/21 06:38:13;;;;;;;17.27;12.82;;;;;;;;;;4955656;29;20290;-45
2022/05/21 06:40:40;;;;;;;15.02;12.48;;;;;;;;;;4956018;29;20238;-45
2022/05/21 06:43:07;;;;;;;18.05;12.98;;;;;;;;;;4956397;29;20274;-45
2022/05/21 06:45:35;;;;;;;16.25;12.40;;;;;;;;;;4955223;28;20279;-46
2022/05/21 06:48:07;;;;;;;17.02;13.50;;;;;;;;;;4947061;29;20224;-46
2022/05/21 06:50:37;;;;;;;18.88;12.52;;;;;;;;;;4953663;28;20301;-45
2022/05/21 06:53:05;;;;;;;11.45;10.25;;;;;;;;;;4955443;29;20243;-45
2022/05/21 06:55:32;;;;;;;12.68;9.95;;;;;;;;;;4956226;28;20227;-46
2022/05/21 06:57:59;;;;;;;11.82;9.38;;;;;;;;;;4955622;29;20231;-45
2022/05/21 07:00:26;;;;;;;11.75;8.32;;;;;;;;;;4955684;29;20662;-46
2022/05/21 07:02:54;;;;;;;10.95;8.25;;;;;;;;;;4955676;29;20227;-46
2022/05/21 07:08:15;;;;;;;8.55;7.40;;;;;;;;;;4954689;28;20230;-45
2022/05/21 07:10:42;;;;;;;8.40;7.28;;;;;;;;;;4953195;29;20250;-45
2022/05/21 07:13:09;;;;;;;9.25;7.15;;;;;;;;;;4955597;29;20245;-50
2022/05/21 07:15:37;;;;;;;7.10;6.40;;;;;;;;;;4953339;29;20681;-47
2022/05/21 07:18:04;;;;;;;7.75;7.03;;;;;;;;;;4955288;29;20669;-50
2022/05/21 07:20:31;;;;;;;23.15;7.75;;;;;;;;;;4954976;29;20674;-48
2022/05/21 07:23:00;;;;;;;8.52;7.57;;;;;;;;;;4955471;29;20227;-48
2022/05/21 07:25:30;;;;;;;10.93;7.47;;;;;;;;;;4955661;29;20232;-51
2022/05/21 07:28:01;;;;;;;9.45;7.60;;;;;;;;;;4968900;28;20285;-51
2022/05/21 07:30:29;;;;;;;10.15;7.20;;;;;;;;;;4954505;28;20239;-51
2022/05/21 07:32:56;;;;;;;7.63;6.90;;;;;;;;;;4954902;29;20246;-49
2022/05/21 07:35:25;;;;;;;8.60;7.03;;;;;;;;;;4955172;29;20223;-52
2022/05/21 07:37:53;;;;;;;8.60;7.30;;;;;;;;;;4933232;29;20224;-48
2022/05/21 07:40:23;;;;;;;9.90;7.53;;;;;;;;;;4952099;29;20222;-47
2022/05/21 07:42:50;;;;;;;7.43;6.18;;;;;;;;;;4952329;29;20314;-48
2022/05/21 07:45:19;;;;;;;14.07;5.80;;;;;;;;;;4954744;29;20227;-47
2022/05/21 07:47:48;;;;;;;6.28;5.57;;;;;;;;;;4954313;29;20330;-48
2022/05/21 07:50:15;;;;;;;9.00;6.32;;;;;;;;;;4954412;29;20223;-49
2022/05/21 07:52:43;;;;;;;8.55;5.82;;;;;;;;;;4954161;29;20215;-46
2022/05/21 07:55:10;;;;;;;8.65;5.75;;;;;;;;;;4949817;29;20211;-49
2022/05/21 07:57:37;;;;;;;7.03;5.93;;;;;;;;;;4957332;28;20313;-49
2022/05/21 08:00:07;;;;;;;7.47;6.32;;;;;;;;;;4958959;29;20286;-47
2022/05/21 08:02:41;;;;;;;9.85;7.35;;;;;;;;;;4959195;28;20227;-48
2022/05/21 08:05:08;;;;;;;8.02;7.20;;;;;;;;;;4959261;29;20227;-48
2022/05/21 08:07:35;;;;;;;7.85;7.15;;;;;;;;;;4959485;29;20218;-48
2022/05/21 08:10:05;;;;;;;9.20;8.18;;;;;;;;;;4959280;29;20227;-48
2022/05/21 08:12:32;;;;;;;8.27;7.40;;;;;;;;;;4959532;29;20222;-48
2022/05/21 08:14:59;;;;;;;8.15;7.40;;;;;;;;;;4959740;29;20541;-48
2022/05/21 08:17:26;;;;;;;8.82;7.38;;;;;;;;;;4959168;29;20207;-48
2022/05/21 08:19:53;;;;;;;8.88;7.97;;;;;;;;;;4959516;29;20211;-47
2022/05/21 08:27:57;;;;;;;8.48;7.57;;;;;;;;;;4959007;29;20198;-48
2022/05/21 08:30:24;;;;;;;10.90;6.90;;;;;;;;;;4958936;29;20243;-50
2022/05/21 08:32:59;;;;;;;7.90;6.90;;;;;;;;;;4959362;29;20283;-47
2022/05/21 08:35:27;;;;;;;7.25;6.55;;;;;;;;;;4959342;29;20246;-48
2022/05/21 08:37:57;;;;;;;7.45;6.53;;;;;;;;;;4958836;29;20294;-47
2022/05/21 08:40:41;;;;;;;7.00;6.07;;;;;;;;;;4958771;29;20265;-51
2022/05/21 08:43:19;;;;;;;11.40;7.00;;;;;;;;;;4958302;29;20229;-47
2022/05/21 08:46:25;;;;;;;9.07;6.50;;;;;;;;;;4954117;28;20200;-49
2022/05/21 08:49:25;;;;;;;7.57;6.72;;;;;;;;;;4940351;29;20232;-47
2022/05/21 08:51:57;;;;;;;8.55;7.03;;;;;;;;;;4939330;28;20649;-48
2022/05/21 08:54:27;;;;;;;8.00;6.65;;;;;;;;;;4957867;29;20227;-49
2022/05/21 08:56:56;;;;;;;12.48;5.50;;;;;;;;;;4941001;29;20242;-47
2022/05/21 08:59:29;;;;;;;9.18;5.53;;;;;;;;;;4957385;29;20219;-46
2022/05/21 09:01:56;;;;;;;8.45;5.43;;;;;;;;;;4940761;29;20231;-47
2022/05/21 09:04:26;;;;;;;9.88;3.50;;;;;;;;;;4957960;29;20246;-46
2022/05/21 09:06:59;;;;;;;7.53;2.58;;;;;;;;;;4957761;28;20266;-47
2022/05/21 09:09:48;;;;;;;4.90;1.80;;;;;;;;;;4956617;28;20245;-46
2022/05/21 09:12:21;;;;;;;8.23;1.70;;;;;;;;;;4957486;28;20227;-49
2022/05/21 09:14:53;;;;;;;11.57;1.52;;;;;;;;;;4957328;29;20235;-47
2022/05/21 09:17:23;;;;;;;4.03;1.50;;;;;;;;;;4932680;29;20601;-46
2022/05/21 09:19:57;;;;;;;10.73;1.70;;;;;;;;;;4957525;29;20231;-46
2022/05/21 09:22:30;;;;;;;3.83;1.33;;;;;;;;;;4957302;29;20666;-45
2022/05/21 09:25:19;;;;;;;12.00;1.40;;;;;;;;;;4957529;29;20302;-45
2022/05/21 09:27:49;;;;;;;13.35;1.77;;;;;;;;;;4957258;29;20227;-47
2022/05/21 09:30:32;;;;;;;13.35;1.60;;;;;;;;;;4956870;29;20239;-44
2022/05/21 09:33:20;;;;;;;4.65;0.80;;;;;;;;;;4952724;29;20642;-43
2022/05/21 09:35:54;;;;;;;4.55;0.90;;;;;;;;;;4943286;29;20556;-44
2022/05/21 09:38:27;;;;;;;8.60;1.15;;;;;;;;;;4951347;29;20239;-45
2022/05/21 09:41:10;;;;;;;3.33;0.80;;;;;;;;;;4956172;29;20617;-47
2022/05/21 09:46:32;;;;;;;5.28;0.80;;;;;;;;;;4955083;29;20227;-45
2022/05/21 09:49:23;;;;;;;2.65;0.68;;;;;;;;;;4955073;29;20266;-46
2022/05/21 09:52:01;;;;;;;7.55;0.98;;;;;;;;;;4955887;29;20231;-45
2022/05/21 09:54:36;;;;;;;2.83;1.10;;;;;;;;;;4951015;29;20223;-46
2022/05/21 09:57:04;;;;;;;2.55;1.20;;;;;;;;;;4934342;29;20530;-48
2022/05/21 09:59:33;;;;;;;4.57;0.80;;;;;;;;;;4952318;29;20235;-45
2022/05/21 10:02:12;;;;;;;2.90;0.80;;;;;;;;;;4954916;29;20223;-45
2022/05/21 10:04:50;;;;;;;3.15;0.70;;;;;;;;;;4950903;29;20247;-46
2022/05/21 10:13:10;;;;;;;2.20;0.80;;;;;;;;;;4941027;29;20222;-50
2022/05/21 10:15:43;;;;;;;3.72;0.90;;;;;;;;;;4938365;29;20227;-46
2022/05/21 10:18:37;;;;;;;3.88;0.93;;;;;;;;;;4938688;29;20223;-48
2022/05/21 10:21:28;;;;;;;10.32;1.10;;;;;;;;;;4954025;28;20220;-45
2022/05/21 10:24:07;;;;;;;3.60;1.00;;;;;;;;;;4959394;28;20233;-46
2022/05/21 10:26:43;;;;;;;7.43;1.40;;;;;;;;;;4955258;29;20633;-47
2022/05/21 10:29:47;;;;;;;15.88;1.40;;;;;;;;;;4937842;29;20269;-46
2022/05/21 10:32:38;;;;;;;10.93;1.13;;;;;;;;;;4952301;29;20604;-46
2022/05/21 10:35:31;;;;;;;3.60;1.00;;;;;;;;;;4953516;29;20229;-46
2022/05/21 10:38:05;;;;;;;2.35;1.15;;;;;;;;;;4939060;29;20273;-47
2022/05/21 10:40:43;;;;;;;5.53;1.38;;;;;;;;;;4951544;29;20214;-49
2022/05/21 10:43:38;;;;;;;4.25;1.00;;;;;;;;;;4952537;29;20540;-46
2022/05/21 10:46:13;;;;;;;6.55;0.93;;;;;;;;;;4952771;29;20658;-46
2022/05/21 10:48:49;;;;;;;10.77;1.23;;;;;;;;;;4938461;29;20260;-46
2022/05/21 10:51:30;;;;;;;3.08;1.30;;;;;;;;;;4953198;29;20231;-49
2022/05/21 10:54:07;;;;;;;9.23;1.00;;;;;;;;;;4953171;29;20681;-46
2022/05/21 10:56:41;;;;;;;8.70;0.90;;;;;;;;;;4936137;29;20581;-46
2022/05/21 10:59:21;;;;;;;12.50;1.10;;;;;;;;;;4934956;29;20223;-50
2022/05/21 11:02:18;;;;;;;13.98;1.13;;;;;;;;;;4939157;29;20286;-46
2022/05/21 11:04:54;;;;;;;2.90;1.10;;;;;;;;;;4939424;29;20215;-47
2022/05/21 11:07:43;;;;;;;4.05;1.20;;;;;;;;;;4953862;29;20199;-46
2022/05/21 11:10:16;;;;;;;9.48;1.15;;;;;;;;;;4933424;29;20249;-46
2022/05/21 11:13:10;;;;;;;2.15;0.80;;;;;;;;;;4936584;29;20235;-46
2022/05/21 11:15:51;;;;;;;2.83;1.00;;;;;;;;;;4952566;29;20242;-48
2022/05/21 11:18:40;;;;;;;5.75;0.80;;;;;;;;;;4937574;29;20765;-46
2022/05/21 11:21:36;;;;;;;4.57;1.38;;;;;;;;;;4954272;29;20234;-46
2022/05/21 11:24:22;;;;;;;3.28;0.90;;;;;;;;;;4952753;29;20235;-50
2022/05/21 11:27:11;;;;;;;2.80;0.70;;;;;;;;;;4935242;29;20219;-46
2022/05/21 11:29:49;;;;;;;6.07;0.88;;;;;;;;;;4938105;29;20258;-43
2022/05/21 12:00:44;;;;;;;4.47;0.90;;;;;;;;;;4669253;28;20231;-44
2022/05/21 12:03:14;;;;;;;2.47;0.88;;;;;;;;;;4928177;29;20227;-46
2022/05/21 12:05:47;;;;;;;8.32;1.27;;;;;;;;;;4928808;29;20639;-45
2022/05/21 12:08:17;;;;;;;4.18;0.80;;;;;;;;;;4931108;29;20208;-49
2022/05/21 12:11:36;;;;;;;5.60;0.80;;;;;;;;;;4928211;29;20236;-48
2022/05/21 12:14:05;;;;;;;2.70;0.55;;;;;;;;;;4900161;29;20624;-50
2022/05/21 13:00:55;;;;;;;11.18;1.35;;;;;;;;;;5449006;24;20711;-49
2022/05/21 13:03:24;;;;;;;4.03;1.23;;;;;;;;;;4843512;29;20212;-53
2022/05/21 13:05:55;;;;;;;7.60;1.23;;;;;;;;;;4839477;29;20219;-51
2022/05/21 13:08:24;;;;;;;4.18;1.25;;;;;;;;;;4838513;29;20237;-55
2022/05/21 13:10:58;;;;;;;6.07;1.60;;;;;;;;;;4842790;29;20259;-48
2022/05/21 13:13:27;;;;;;;4.22;1.40;;;;;;;;;;4842762;29;20410;-49
2022/05/21 13:15:59;;;;;;;3.95;1.10;;;;;;;;;;4840801;29;20295;-52
2022/05/21 13:18:48;;;;;;;3.33;1.27;;;;;;;;;;4827218;29;20255;-59
2022/05/21 13:21:34;;;;;;;13.75;1.10;;;;;;;;;;4832200;29;20571;-49
2022/05/21 13:24:31;;;;;;;5.75;1.13;;;;;;;;;;4827263;29;20660;-50
2022/05/21 13:27:07;;;;;;;10.60;1.45;;;;;;;;;;4825589;29;20251;-46
2022/05/21 13:29:34;;;;;;;5.88;1.27;;;;;;;;;;4844437;29;20238;-48
2022/05/21 13:32:16;;;;;;;3.28;1.02;;;;;;;;;;4819882;29;20342;-46
2022/05/21 13:34:43;;;;;;;6.10;0.93;;;;;;;;;;4831555;29;20236;-46
2022/05/21 13:37:10;;;;;;;7.32;1.05;;;;;;;;;;4825655;29;20662;-46
2022/05/21 13:39:38;;;;;;;4.35;1.33;;;;;;;;;;4827139;29;20739;-48
2022/05/21 13:42:12;;;;;;;4.30;0.98;;;;;;;;;;4844090;29;20227;-48
2022/05/21 13:44:40;;;;;;;9.32;1.10;;;;;;;;;;4844629;29;20259;-48
2022/05/21 13:47:17;;;;;;;4.07;1.20;;;;;;;;;;4828576;29;20235;-47
2022/05/21 13:49:48;;;;;;;4.63;1.05;;;;;;;;;;4811804;29;20243;-48
2022/05/21 13:52:16;;;;;;;3.00;0.90;;;;;;;;;;4827980;29;20247;-51
2022/05/21 13:54:43;;;;;;;5.20;1.05;;;;;;;;;;4828129;29;20750;-49
2022/05/21 13:57:20;;;;;;;4.03;1.05;;;;;;;;;;4844294;29;20313;-47
2022/05/21 13:59:53;;;;;;;4.40;1.20;;;;;;;;;;4844173;29;20249;-49
2022/05/21 14:02:38;;;;;;;7.32;1.40;;;;;;;;;;4844123;29;20658;-47
2022/05/21 14:05:19;;;;;;;2.75;0.93;;;;;;;;;;4844861;29;20235;-45
2022/05/21 14:07:53;;;;;;;7.30;1.10;;;;;;;;;;4843840;29;20665;-45
2022/05/21 14:10:33;;;;;;;3.90;0.85;;;;;;;;;;4843720;29;20227;-51
2022/05/21 14:13:05;;;;;;;3.53;1.20;;;;;;;;;;4843226;29;20227;-47
2022/05/21 14:15:41;;;;;;;7.68;0.80;;;;;;;;;;4843851;29;20738;-45
2022/05/21 14:18:08;;;;;;;2.97;1.25;;;;;;;;;;4844034;29;20223;-47
2022/05/21 14:20:37;;;;;;;3.50;0.77;;;;;;;;;;4843622;29;20255;-45
2022/05/21 14:23:33;;;;;;;9.02;1.15;;;;;;;;;;4827518;29;20681;-45
2022/05/21 14:26:31;;;;;;;5.18;1.52;;;;;;;;;;4843795;29;20235;-45
2022/05/21 14:29:00;;;;;;;10.93;1.30;;;;;;;;;;4843837;29;20231;-45
2022/05/21 14:31:39;;;;;;;2.38;1.10;;;;;;;;;;4843701;29;20250;-47
2022/05/21 14:34:27;;;;;;;5.57;1.15;;;;;;;;;;4844065;29;20227;-45
2022/05/21 14:36:54;;;;;;;2.95;1.35;;;;;;;;;;4843368;29;20272;-45
2022/05/21 14:39:27;;;;;;;5.20;1.02;;;;;;;;;;4843493;29;20235;-46
2022/05/21 14:41:59;;;;;;;3.55;0.95;;;;;;;;;;4843749;29;20241;-47
2022/05/21 14:44:27;;;;;;;6.40;0.98;;;;;;;;;;4843347;29;20678;-46
2022/05/21 14:49:40;;;;;;;1.23;0.80;;;;;;;;;;4843607;29;20288;-47
2022/05/21 14:54:58;;;;;;;5.93;0.70;;;;;;;;;;4855596;29;20235;-46
2022/05/21 14:57:26;;;;;;;3.60;0.90;;;;;;;;;;4843390;29;20255;-49
2022/05/21 14:59:54;;;;;;;5.97;0.75;;;;;;;;;;4843578;29;20231;-46
2022/05/21 15:02:21;;;;;;;2.60;0.85;;;;;;;;;;4843001;29;20238;-49
2022/05/21 15:04:47;;;;;;;4.03;0.88;;;;;;;;;;4843366;29;20227;-46
2022/05/21 15:07:21;;;;;;;6.20;1.05;;;;;;;;;;4842253;29;20331;-46
2022/05/21 15:09:49;;;;;;;3.83;0.90;;;;;;;;;;4843601;29;20227;-46
2022/05/21 15:12:16;;;;;;;2.78;0.88;;;;;;;;;;4841762;29;20610;-49
2022/05/21 15:14:43;;;;;;;5.68;0.93;;;;;;;;;;4843423;29;20232;-46
2022/05/21 15:17:10;;;;;;;3.13;0.85;;;;;;;;;;4842193;29;20276;-45
2022/05/21 15:19:37;;;;;;;7.25;1.10;;;;;;;;;;4843236;29;20621;-45
2022/05/21 15:22:07;;;;;;;3.75;0.90;;;;;;;;;;4826638;29;20238;-46
2022/05/21 15:24:38;;;;;;;5.47;0.93;;;;;;;;;;4843222;29;20231;-46
2022/05/21 15:27:12;;;;;;;4.63;0.95;;;;;;;;;;4843370;29;20237;-47
2022/05/21 15:29:41;;;;;;;3.50;0.95;;;;;;;;;;4843252;29;20235;-45
2022/05/21 15:32:08;;;;;;;7.57;1.25;;;;;;;;;;4842745;29;20231;-47
2022/05/21 15:34:36;;;;;;;2.45;0.95;;;;;;;;;;4842636;29;20235;-47
2022/05/21 15:37:04;;;;;;;7.05;1.48;;;;;;;;;;4834496;29;20231;-49
2022/05/21 15:39:31;;;;;;;2.97;0.90;;;;;;;;;;4824769;29;20252;-51
2022/05/21 15:42:01;;;;;;;2.17;0.85;;;;;;;;;;4842891;29;20223;-47
2022/05/21 15:44:29;;;;;;;6.65;1.00;;;;;;;;;;4841106;29;20231;-50
2022/05/21 15:46:56;;;;;;;6.85;0.82;;;;;;;;;;4840455;29;20230;-47
2022/05/21 15:49:23;;;;;;;4.47;1.00;;;;;;;;;;4841614;29;20227;-47
2022/05/21 15:52:16;;;;;;;3.38;1.38;;;;;;;;;;4841006;29;20617;-47
2022/05/21 15:54:45;;;;;;;4.75;0.90;;;;;;;;;;4841397;29;20315;-46
2022/05/21 15:57:12;;;;;;;2.88;1.08;;;;;;;;;;4839463;29;20234;-44
2022/05/21 15:59:40;;;;;;;5.03;1.25;;;;;;;;;;4841501;29;20227;-47
2022/05/21 16:02:14;;;;;;;9.05;1.30;;;;;;;;;;4841240;29;20251;-46
2022/05/21 16:04:41;;;;;;;1.70;0.80;;;;;;;;;;4840800;29;20678;-49
2022/05/21 16:07:08;;;;;;;4.95;1.10;;;;;;;;;;4842507;29;20267;-47
2022/05/21 16:09:37;;;;;;;3.65;0.80;;;;;;;;;;4841246;29;20494;-46
2022/05/21 16:12:05;;;;;;;4.65;1.27;;;;;;;;;;4841988;29;20231;-47
2022/05/21 16:14:33;;;;;;;3.63;0.95;;;;;;;;;;4842489;29;20322;-45
2022/05/21 16:17:00;;;;;;;18.38;1.40;;;;;;;;;;4843063;29;20237;-46
2022/05/21 16:19:37;;;;;;;3.03;0.90;;;;;;;;;;4845810;29;20243;-46
2022/05/21 16:22:12;;;;;;;3.22;1.33;;;;;;;;;;4845302;29;20698;-46
2022/05/21 16:24:39;;;;;;;5.72;1.55;;;;;;;;;;4829699;29;20310;-47
2022/05/21 16:27:12;;;;;;;7.45;2.35;;;;;;;;;;4846156;29;20232;-46
2022/05/21 16:29:41;;;;;;;4.22;1.38;;;;;;;;;;4845189;29;20231;-49
2022/05/21 16:32:09;;;;;;;5.13;1.00;;;;;;;;;;4845675;29;20280;-47
2022/05/21 16:34:36;;;;;;;3.63;1.10;;;;;;;;;;4845056;29;20659;-45
2022/05/21 16:37:04;;;;;;;5.53;0.95;;;;;;;;;;4845685;29;20231;-50
2022/05/21 16:39:33;;;;;;;5.32;1.08;;;;;;;;;;4845318;29;20243;-46
2022/05/21 16:42:00;;;;;;;4.75;1.30;;;;;;;;;;4845910;29;20223;-47
2022/05/21 16:44:27;;;;;;;3.60;1.25;;;;;;;;;;4845302;29;20232;-53
2022/05/21 16:46:54;;;;;;;3.25;1.10;;;;;;;;;;4845781;29;20236;-56